sensor_id;sensor_type;location;lat;lon;timestamp;temperature;humidity
46336;DHT22;31365;48.858;8.530;2022-07-10T00:00:09;18.90;99.90
46336;DHT22;31365;48.858;8.530;2022-07-10T00:02:40;19.00;99.90
46336;DHT22;31365;48.858;8.530;2022-07-10T00:05:11;18.90;99.90
46336;DHT22;31365;48.858;8.530;2022-07-10T00:07:46;18.90;99.90
46336;DHT22;31365;48.858;8.530;2022-07-10T00:10:16;18.80;99.90
46336;DHT22;31365;48.858;8.530;2022-07-10T00:12:45;18.90;99.90
46336;DHT22;31365;48.858;8.530;2022-07-10T00:15:15;18.80;99.90
46336;DHT22;31365;48.858;8.530;2022-07-10T00:17:45;18.80;99.90
46336;DHT22;31365;48.858;8.530;2022-07-10T00:20:14;18.90;99.90
46336;DHT22;31365;48.858;8.530;2022-07-10T00:22:43;18.90;99.90
46336;DHT22;31365;48.858;8.530;2022-07-10T00:25:13;18.90;99.90
46336;DHT22;31365;48.858;8.530;2022-07-10T00:27:43;18.90;99.90
46336;DHT22;31365;48.858;8.530;2022-07-10T00:30:12;18.90;99.90
46336;DHT22;31365;48.858;8.530;2022-07-10T00:32:40;18.90;99.90
46336;DHT22;31365;48.858;8.530;2022-07-10T00:35:09;18.90;99.90
46336;DHT22;31365;48.858;8.530;2022-07-10T00:37:37;18.90;99.90
46336;DHT22;31365;48.858;8.530;2022-07-10T00:40:06;18.90;99.90
46336;DHT22;31365;48.858;8.530;2022-07-10T00:42:35;18.90;99.90
46336;DHT22;31365;48.858;8.530;2022-07-10T00:45:06;18.90;99.90
46336;DHT22;31365;48.858;8.530;2022-07-10T00:47:35;18.90;99.90
46336;DHT22;31365;48.858;8.530;2022-07-10T00:50:05;18.90;99.90
46336;DHT22;31365;48.858;8.530;2022-07-10T00:52:35;18.90;99.90
46336;DHT22;31365;48.858;8.530;2022-07-10T00:55:06;18.80;99.90
46336;DHT22;31365;48.858;8.530;2022-07-10T00:57:37;18.80;99.90
46336;DHT22;31365;48.858;8.530;2022-07-10T01:00:09;18.80;99.90
46336;DHT22;31365;48.858;8.530;2022-07-10T01:02:41;18.70;99.90
46336;DHT22;31365;48.858;8.530;2022-07-10T01:05:11;18.70;99.90
46336;DHT22;31365;48.858;8.530;2022-07-10T01:07:40;18.60;99.90
46336;DHT22;31365;48.858;8.530;2022-07-10T01:10:10;18.60;99.90
46336;DHT22;31365;48.858;8.530;2022-07-10T01:12:38;18.60;99.90
46336;DHT22;31365;48.858;8.530;2022-07-10T01:15:09;18.50;99.90
46336;DHT22;31365;48.858;8.530;2022-07-10T01:17:38;18.50;99.90
46336;DHT22;31365;48.858;8.530;2022-07-10T01:20:07;18.40;99.90
46336;DHT22;31365;48.858;8.530;2022-07-10T01:22:38;18.40;99.90
46336;DHT22;31365;48.858;8.530;2022-07-10T01:25:07;18.50;99.90
46336;DHT22;31365;48.858;8.530;2022-07-10T01:27:38;18.50;99.90
46336;DHT22;31365;48.858;8.530;2022-07-10T01:30:08;18.50;99.90
46336;DHT22;31365;48.858;8.530;2022-07-10T01:32:38;18.50;99.90
46336;DHT22;31365;48.858;8.530;2022-07-10T01:35:08;18.50;99.90
46336;DHT22;31365;48.858;8.530;2022-07-10T01:37:38;18.50;99.90
46336;DHT22;31365;48.858;8.530;2022-07-10T01:40:09;18.50;99.90
46336;DHT22;31365;48.858;8.530;2022-07-10T01:42:39;18.50;99.90
46336;DHT22;31365;48.858;8.530;2022-07-10T01:45:08;18.40;99.90
46336;DHT22;31365;48.858;8.530;2022-07-10T01:47:38;18.40;99.90
46336;DHT22;31365;48.858;8.530;2022-07-10T01:50:07;18.30;99.90
46336;DHT22;31365;48.858;8.530;2022-07-10T01:52:37;18.30;99.90
46336;DHT22;31365;48.858;8.530;2022-07-10T01:55:07;18.30;99.90
46336;DHT22;31365;48.858;8.530;2022-07-10T01:57:36;18.30;99.90
46336;DHT22;31365;48.858;8.530;2022-07-10T02:00:05;18.30;99.90
46336;DHT22;31365;48.858;8.530;2022-07-10T02:02:38;18.20;99.90
46336;DHT22;31365;48.858;8.530;2022-07-10T02:05:07;18.20;99.90
46336;DHT22;31365;48.858;8.530;2022-07-10T02:07:35;18.20;99.90
46336;DHT22;31365;48.858;8.530;2022-07-10T02:10:06;18.10;99.90
46336;DHT22;31365;48.858;8.530;2022-07-10T02:12:35;18.00;99.90
46336;DHT22;31365;48.858;8.530;2022-07-10T02:15:04;18.00;99.90
46336;DHT22;31365;48.858;8.530;2022-07-10T02:17:34;17.90;99.90
46336;DHT22;31365;48.858;8.530;2022-07-10T02:20:02;17.90;99.90
46336;DHT22;31365;48.858;8.530;2022-07-10T02:22:32;17.90;99.90
46336;DHT22;31365;48.858;8.530;2022-07-10T02:25:00;17.90;99.90
46336;DHT22;31365;48.858;8.530;2022-07-10T02:27:30;17.90;99.90
46336;DHT22;31365;48.858;8.530;2022-07-10T02:29:58;18.00;99.90
46336;DHT22;31365;48.858;8.530;2022-07-10T02:32:27;17.80;99.90
46336;DHT22;31365;48.858;8.530;2022-07-10T02:34:55;17.70;99.90
46336;DHT22;31365;48.858;8.530;2022-07-10T02:37:24;17.60;99.90
46336;DHT22;31365;48.858;8.530;2022-07-10T02:39:52;17.60;99.90
46336;DHT22;31365;48.858;8.530;2022-07-10T02:42:20;17.70;99.90
46336;DHT22;31365;48.858;8.530;2022-07-10T02:44:50;17.70;99.90
46336;DHT22;31365;48.858;8.530;2022-07-10T02:47:19;17.60;99.90
46336;DHT22;31365;48.858;8.530;2022-07-10T02:49:47;17.60;99.90
46336;DHT22;31365;48.858;8.530;2022-07-10T02:52:16;17.60;99.90
46336;DHT22;31365;48.858;8.530;2022-07-10T02:54:44;17.50;99.90
46336;DHT22;31365;48.858;8.530;2022-07-10T02:57:12;17.60;99.90
46336;DHT22;31365;48.858;8.530;2022-07-10T02:59:41;17.60;99.90
46336;DHT22;31365;48.858;8.530;2022-07-10T03:02:10;17.60;99.90
46336;DHT22;31365;48.858;8.530;2022-07-10T03:04:39;17.50;99.90
46336;DHT22;31365;48.858;8.530;2022-07-10T03:07:07;17.40;99.90
46336;DHT22;31365;48.858;8.530;2022-07-10T03:09:35;17.40;99.90
46336;DHT22;31365;48.858;8.530;2022-07-10T03:12:05;17.40;99.90
46336;DHT22;31365;48.858;8.530;2022-07-10T03:14:34;17.40;99.90
46336;DHT22;31365;48.858;8.530;2022-07-10T03:17:04;17.40;99.90
46336;DHT22;31365;48.858;8.530;2022-07-10T03:19:34;17.40;99.90
46336;DHT22;31365;48.858;8.530;2022-07-10T03:22:02;17.30;99.90
46336;DHT22;31365;48.858;8.530;2022-07-10T03:24:31;17.20;99.90
46336;DHT22;31365;48.858;8.530;2022-07-10T03:27:00;17.20;99.90
46336;DHT22;31365;48.858;8.530;2022-07-10T03:29:29;17.10;99.90
46336;DHT22;31365;48.858;8.530;2022-07-10T03:31:57;17.00;99.90
46336;DHT22;31365;48.858;8.530;2022-07-10T03:34:26;16.90;99.90
46336;DHT22;31365;48.858;8.530;2022-07-10T03:36:56;16.90;99.90
46336;DHT22;31365;48.858;8.530;2022-07-10T03:39:24;17.00;99.90
46336;DHT22;31365;48.858;8.530;2022-07-10T03:41:53;16.90;99.90
46336;DHT22;31365;48.858;8.530;2022-07-10T03:44:21;16.90;99.90
46336;DHT22;31365;48.858;8.530;2022-07-10T03:46:50;16.90;99.90
46336;DHT22;31365;48.858;8.530;2022-07-10T03:49:19;16.90;99.90
46336;DHT22;31365;48.858;8.530;2022-07-10T03:51:47;16.90;99.90
46336;DHT22;31365;48.858;8.530;2022-07-10T03:54:17;16.90;99.90
46336;DHT22;31365;48.858;8.530;2022-07-10T03:56:45;16.90;99.90
46336;DHT22;31365;48.858;8.530;2022-07-10T03:59:32;16.80;99.90
46336;DHT22;31365;48.858;8.530;2022-07-10T04:02:00;16.70;99.90
46336;DHT22;31365;48.858;8.530;2022-07-10T04:04:29;16.80;99.90
46336;DHT22;31365;48.858;8.530;2022-07-10T04:06:58;16.80;99.90
46336;DHT22;31365;48.858;8.530;2022-07-10T04:09:27;16.80;99.90
46336;DHT22;31365;48.858;8.530;2022-07-10T04:11:56;16.80;99.90
46336;DHT22;31365;48.858;8.530;2022-07-10T04:14:25;16.80;99.90
46336;DHT22;31365;48.858;8.530;2022-07-10T04:16:53;16.80;99.90
46336;DHT22;31365;48.858;8.530;2022-07-10T04:19:21;16.80;99.90
46336;DHT22;31365;48.858;8.530;2022-07-10T04:21:50;16.80;99.90
46336;DHT22;31365;48.858;8.530;2022-07-10T04:24:19;16.70;99.90
46336;DHT22;31365;48.858;8.530;2022-07-10T04:26:48;16.70;99.90
46336;DHT22;31365;48.858;8.530;2022-07-10T04:29:16;16.70;99.90
46336;DHT22;31365;48.858;8.530;2022-07-10T04:31:44;16.70;99.90
46336;DHT22;31365;48.858;8.530;2022-07-10T04:34:13;16.70;99.90
46336;DHT22;31365;48.858;8.530;2022-07-10T04:36:42;16.70;99.90
46336;DHT22;31365;48.858;8.530;2022-07-10T04:39:10;16.70;99.90
46336;DHT22;31365;48.858;8.530;2022-07-10T04:41:39;16.70;99.90
46336;DHT22;31365;48.858;8.530;2022-07-10T04:44:08;16.70;99.90
46336;DHT22;31365;48.858;8.530;2022-07-10T04:46:37;16.70;99.90
46336;DHT22;31365;48.858;8.530;2022-07-10T04:49:06;16.80;99.90
46336;DHT22;31365;48.858;8.530;2022-07-10T04:51:34;16.80;99.90
46336;DHT22;31365;48.858;8.530;2022-07-10T04:54:06;16.80;99.90
46336;DHT22;31365;48.858;8.530;2022-07-10T04:56:35;16.80;99.90
46336;DHT22;31365;48.858;8.530;2022-07-10T04:59:03;16.90;99.90
46336;DHT22;31365;48.858;8.530;2022-07-10T05:01:33;16.90;99.90
46336;DHT22;31365;48.858;8.530;2022-07-10T05:04:01;16.90;99.90
46336;DHT22;31365;48.858;8.530;2022-07-10T05:06:30;16.90;99.90
46336;DHT22;31365;48.858;8.530;2022-07-10T05:08:59;17.00;99.90
46336;DHT22;31365;48.858;8.530;2022-07-10T05:11:27;17.00;99.90
46336;DHT22;31365;48.858;8.530;2022-07-10T05:13:56;17.00;99.90
46336;DHT22;31365;48.858;8.530;2022-07-10T05:16:25;17.00;99.90
46336;DHT22;31365;48.858;8.530;2022-07-10T05:18:54;17.00;99.90
46336;DHT22;31365;48.858;8.530;2022-07-10T05:21:22;17.10;99.90
46336;DHT22;31365;48.858;8.530;2022-07-10T05:23:52;17.10;99.90
46336;DHT22;31365;48.858;8.530;2022-07-10T05:26:20;17.10;99.90
46336;DHT22;31365;48.858;8.530;2022-07-10T05:28:49;17.10;99.90
46336;DHT22;31365;48.858;8.530;2022-07-10T05:31:17;17.10;99.90
46336;DHT22;31365;48.858;8.530;2022-07-10T05:33:45;17.20;99.90
46336;DHT22;31365;48.858;8.530;2022-07-10T05:36:15;17.20;99.90
46336;DHT22;31365;48.858;8.530;2022-07-10T05:38:44;17.20;99.90
46336;DHT22;31365;48.858;8.530;2022-07-10T05:41:13;17.20;99.90
46336;DHT22;31365;48.858;8.530;2022-07-10T05:43:42;17.10;99.90
46336;DHT22;31365;48.858;8.530;2022-07-10T05:46:10;17.10;99.90
46336;DHT22;31365;48.858;8.530;2022-07-10T05:48:39;17.10;99.90
46336;DHT22;31365;48.858;8.530;2022-07-10T05:51:08;17.20;99.90
46336;DHT22;31365;48.858;8.530;2022-07-10T05:53:58;17.20;99.90
46336;DHT22;31365;48.858;8.530;2022-07-10T05:56:26;17.20;99.90
46336;DHT22;31365;48.858;8.530;2022-07-10T05:58:54;17.20;99.90
46336;DHT22;31365;48.858;8.530;2022-07-10T06:01:24;17.30;99.90
46336;DHT22;31365;48.858;8.530;2022-07-10T06:03:53;17.30;99.90
46336;DHT22;31365;48.858;8.530;2022-07-10T06:06:22;17.30;99.90
46336;DHT22;31365;48.858;8.530;2022-07-10T06:08:50;17.30;99.90
46336;DHT22;31365;48.858;8.530;2022-07-10T06:11:20;17.20;99.90
46336;DHT22;31365;48.858;8.530;2022-07-10T06:13:48;17.10;99.90
46336;DHT22;31365;48.858;8.530;2022-07-10T06:16:17;17.10;99.90
46336;DHT22;31365;48.858;8.530;2022-07-10T06:18:45;17.10;99.90
46336;DHT22;31365;48.858;8.530;2022-07-10T06:21:14;17.20;99.90
46336;DHT22;31365;48.858;8.530;2022-07-10T06:23:42;17.20;99.90
46336;DHT22;31365;48.858;8.530;2022-07-10T06:26:10;17.20;99.90
46336;DHT22;31365;48.858;8.530;2022-07-10T06:28:40;17.20;99.90
46336;DHT22;31365;48.858;8.530;2022-07-10T06:31:09;17.20;99.90
46336;DHT22;31365;48.858;8.530;2022-07-10T06:33:37;17.20;99.90
46336;DHT22;31365;48.858;8.530;2022-07-10T06:36:06;17.20;99.90
46336;DHT22;31365;48.858;8.530;2022-07-10T06:38:35;17.20;99.90
46336;DHT22;31365;48.858;8.530;2022-07-10T06:41:04;17.20;99.90
46336;DHT22;31365;48.858;8.530;2022-07-10T06:43:33;17.20;99.90
46336;DHT22;31365;48.858;8.530;2022-07-10T06:46:03;17.20;99.90
46336;DHT22;31365;48.858;8.530;2022-07-10T06:48:32;17.20;99.90
46336;DHT22;31365;48.858;8.530;2022-07-10T06:51:05;17.20;99.90
46336;DHT22;31365;48.858;8.530;2022-07-10T06:53:43;17.30;99.90
46336;DHT22;31365;48.858;8.530;2022-07-10T06:56:12;17.30;99.90
46336;DHT22;31365;48.858;8.530;2022-07-10T06:58:42;17.40;99.90
46336;DHT22;31365;48.858;8.530;2022-07-10T07:01:12;17.50;99.90
46336;DHT22;31365;48.858;8.530;2022-07-10T07:03:41;17.70;99.90
46336;DHT22;31365;48.858;8.530;2022-07-10T07:06:09;17.80;99.90
46336;DHT22;31365;48.858;8.530;2022-07-10T07:08:38;17.80;99.90
46336;DHT22;31365;48.858;8.530;2022-07-10T07:11:07;17.90;99.90
46336;DHT22;31365;48.858;8.530;2022-07-10T07:13:36;17.90;99.90
46336;DHT22;31365;48.858;8.530;2022-07-10T07:16:05;17.90;99.90
46336;DHT22;31365;48.858;8.530;2022-07-10T07:18:38;18.00;99.90
46336;DHT22;31365;48.858;8.530;2022-07-10T07:21:14;17.90;99.90
46336;DHT22;31365;48.858;8.530;2022-07-10T07:24:00;18.00;99.90
46336;DHT22;31365;48.858;8.530;2022-07-10T07:26:29;18.00;99.90
46336;DHT22;31365;48.858;8.530;2022-07-10T07:28:57;17.90;99.90
46336;DHT22;31365;48.858;8.530;2022-07-10T07:31:27;17.80;99.90
46336;DHT22;31365;48.858;8.530;2022-07-10T07:33:57;17.90;99.90
46336;DHT22;31365;48.858;8.530;2022-07-10T07:36:25;17.80;99.90
46336;DHT22;31365;48.858;8.530;2022-07-10T07:38:53;17.70;99.90
46336;DHT22;31365;48.858;8.530;2022-07-10T07:41:22;17.70;99.90
46336;DHT22;31365;48.858;8.530;2022-07-10T07:43:51;17.70;99.90
46336;DHT22;31365;48.858;8.530;2022-07-10T07:46:19;17.70;99.90
46336;DHT22;31365;48.858;8.530;2022-07-10T07:48:48;17.60;99.90
46336;DHT22;31365;48.858;8.530;2022-07-10T07:51:18;17.50;99.90
46336;DHT22;31365;48.858;8.530;2022-07-10T07:53:46;17.40;99.90
46336;DHT22;31365;48.858;8.530;2022-07-10T07:56:14;17.30;99.90
46336;DHT22;31365;48.858;8.530;2022-07-10T07:58:43;17.30;99.90
46336;DHT22;31365;48.858;8.530;2022-07-10T08:01:11;17.20;99.90
46336;DHT22;31365;48.858;8.530;2022-07-10T08:03:39;17.10;99.90
46336;DHT22;31365;48.858;8.530;2022-07-10T08:06:28;17.10;99.90
46336;DHT22;31365;48.858;8.530;2022-07-10T08:08:57;17.10;99.90
46336;DHT22;31365;48.858;8.530;2022-07-10T08:11:25;17.20;99.90
46336;DHT22;31365;48.858;8.530;2022-07-10T08:13:53;17.30;99.90
46336;DHT22;31365;48.858;8.530;2022-07-10T08:16:22;17.40;99.90
46336;DHT22;31365;48.858;8.530;2022-07-10T08:18:50;17.60;99.90
46336;DHT22;31365;48.858;8.530;2022-07-10T08:21:18;17.80;99.90
46336;DHT22;31365;48.858;8.530;2022-07-10T08:23:48;17.90;99.90
46336;DHT22;31365;48.858;8.530;2022-07-10T08:26:16;18.20;99.90
46336;DHT22;31365;48.858;8.530;2022-07-10T08:28:44;18.30;99.90
46336;DHT22;31365;48.858;8.530;2022-07-10T08:31:13;18.40;99.90
46336;DHT22;31365;48.858;8.530;2022-07-10T08:33:42;18.70;99.90
46336;DHT22;31365;48.858;8.530;2022-07-10T08:36:10;18.90;99.90
46336;DHT22;31365;48.858;8.530;2022-07-10T08:39:00;19.10;99.90
46336;DHT22;31365;48.858;8.530;2022-07-10T08:41:29;19.30;99.90
46336;DHT22;31365;48.858;8.530;2022-07-10T08:43:59;19.40;99.90
46336;DHT22;31365;48.858;8.530;2022-07-10T08:46:30;19.40;99.90
46336;DHT22;31365;48.858;8.530;2022-07-10T08:49:00;19.40;99.90
46336;DHT22;31365;48.858;8.530;2022-07-10T08:51:39;19.20;99.90
46336;DHT22;31365;48.858;8.530;2022-07-10T08:54:14;19.00;99.90
46336;DHT22;31365;48.858;8.530;2022-07-10T08:56:48;18.90;99.90
46336;DHT22;31365;48.858;8.530;2022-07-10T08:59:19;19.00;99.90
46336;DHT22;31365;48.858;8.530;2022-07-10T09:01:57;19.00;99.90
46336;DHT22;31365;48.858;8.530;2022-07-10T09:04:27;19.10;99.90
46336;DHT22;31365;48.858;8.530;2022-07-10T09:06:56;19.10;99.90
46336;DHT22;31365;48.858;8.530;2022-07-10T09:09:26;19.10;99.90
46336;DHT22;31365;48.858;8.530;2022-07-10T09:11:58;19.20;99.90
46336;DHT22;31365;48.858;8.530;2022-07-10T09:14:27;19.30;99.90
46336;DHT22;31365;48.858;8.530;2022-07-10T09:17:01;19.40;99.90
46336;DHT22;31365;48.858;8.530;2022-07-10T09:19:30;19.50;99.90
46336;DHT22;31365;48.858;8.530;2022-07-10T09:22:03;19.50;99.90
46336;DHT22;31365;48.858;8.530;2022-07-10T09:24:36;19.60;99.90
46336;DHT22;31365;48.858;8.530;2022-07-10T09:27:07;19.80;99.90
46336;DHT22;31365;48.858;8.530;2022-07-10T09:29:45;20.00;99.90
46336;DHT22;31365;48.858;8.530;2022-07-10T09:32:16;20.20;99.90
46336;DHT22;31365;48.858;8.530;2022-07-10T09:34:45;20.20;99.20
46336;DHT22;31365;48.858;8.530;2022-07-10T09:37:23;20.20;99.70
46336;DHT22;31365;48.858;8.530;2022-07-10T09:39:56;20.20;99.70
46336;DHT22;31365;48.858;8.530;2022-07-10T09:42:28;20.20;99.30
46336;DHT22;31365;48.858;8.530;2022-07-10T09:45:18;20.30;99.60
46336;DHT22;31365;48.858;8.530;2022-07-10T09:47:54;20.50;99.70
46336;DHT22;31365;48.858;8.530;2022-07-10T09:50:26;20.50;98.90
46336;DHT22;31365;48.858;8.530;2022-07-10T09:52:56;20.40;98.50
46336;DHT22;31365;48.858;8.530;2022-07-10T09:55:28;20.30;98.50
46336;DHT22;31365;48.858;8.530;2022-07-10T09:58:00;20.20;98.50
46336;DHT22;31365;48.858;8.530;2022-07-10T10:00:32;20.20;97.90
46336;DHT22;31365;48.858;8.530;2022-07-10T10:03:03;20.40;98.10
46336;DHT22;31365;48.858;8.530;2022-07-10T10:05:39;20.60;97.20
46336;DHT22;31365;48.858;8.530;2022-07-10T10:08:12;20.60;97.10
46336;DHT22;31365;48.858;8.530;2022-07-10T10:10:48;20.50;96.60
46336;DHT22;31365;48.858;8.530;2022-07-10T10:13:18;20.50;96.50
46336;DHT22;31365;48.858;8.530;2022-07-10T10:15:48;20.30;96.50
46336;DHT22;31365;48.858;8.530;2022-07-10T10:18:19;20.20;96.20
46336;DHT22;31365;48.858;8.530;2022-07-10T10:20:49;20.10;95.60
46336;DHT22;31365;48.858;8.530;2022-07-10T10:23:18;20.00;95.60
46336;DHT22;31365;48.858;8.530;2022-07-10T10:25:50;20.10;95.40
46336;DHT22;31365;48.858;8.530;2022-07-10T10:28:22;20.30;95.50
46336;DHT22;31365;48.858;8.530;2022-07-10T10:30:53;20.50;95.10
46336;DHT22;31365;48.858;8.530;2022-07-10T10:33:44;20.50;94.80
46336;DHT22;31365;48.858;8.530;2022-07-10T10:36:43;20.50;95.10
46336;DHT22;31365;48.858;8.530;2022-07-10T10:39:18;20.40;94.90
46336;DHT22;31365;48.858;8.530;2022-07-10T10:41:50;20.30;94.40
46336;DHT22;31365;48.858;8.530;2022-07-10T10:44:24;20.20;94.80
46336;DHT22;31365;48.858;8.530;2022-07-10T10:46:57;20.40;94.80
46336;DHT22;31365;48.858;8.530;2022-07-10T10:49:55;20.50;94.20
46336;DHT22;31365;48.858;8.530;2022-07-10T10:52:28;20.50;93.60
46336;DHT22;31365;48.858;8.530;2022-07-10T10:55:02;20.40;92.90
46336;DHT22;31365;48.858;8.530;2022-07-10T10:57:43;20.50;92.60
46336;DHT22;31365;48.858;8.530;2022-07-10T11:00:32;20.40;92.80
46336;DHT22;31365;48.858;8.530;2022-07-10T11:03:19;20.80;93.50
46336;DHT22;31365;48.858;8.530;2022-07-10T11:05:51;20.90;92.70
46336;DHT22;31365;48.858;8.530;2022-07-10T11:08:36;20.90;92.50
46336;DHT22;31365;48.858;8.530;2022-07-10T11:11:39;20.90;92.10
46336;DHT22;31365;48.858;8.530;2022-07-10T11:14:11;21.00;92.10
46336;DHT22;31365;48.858;8.530;2022-07-10T11:16:47;21.20;92.20
46336;DHT22;31365;48.858;8.530;2022-07-10T11:19:21;21.10;90.70
46336;DHT22;31365;48.858;8.530;2022-07-10T11:22:07;21.00;90.80
46336;DHT22;31365;48.858;8.530;2022-07-10T11:25:01;21.20;91.30
46336;DHT22;31365;48.858;8.530;2022-07-10T11:27:57;21.40;90.20
46336;DHT22;31365;48.858;8.530;2022-07-10T11:30:47;21.80;88.90
46336;DHT22;31365;48.858;8.530;2022-07-10T11:33:18;21.90;88.10
46336;DHT22;31365;48.858;8.530;2022-07-10T11:35:50;21.80;89.30
46336;DHT22;31365;48.858;8.530;2022-07-10T11:38:20;22.10;88.80
46336;DHT22;31365;48.858;8.530;2022-07-10T11:40:51;23.10;85.00
46336;DHT22;31365;48.858;8.530;2022-07-10T11:43:20;24.00;83.40
46336;DHT22;31365;48.858;8.530;2022-07-10T11:45:52;25.00;80.30
46336;DHT22;31365;48.858;8.530;2022-07-10T11:48:26;25.70;79.20
46336;DHT22;31365;48.858;8.530;2022-07-10T11:50:54;26.30;74.60
46336;DHT22;31365;48.858;8.530;2022-07-10T11:53:24;26.70;72.80
46336;DHT22;31365;48.858;8.530;2022-07-10T11:55:53;27.10;71.40
46336;DHT22;31365;48.858;8.530;2022-07-10T11:58:21;27.50;68.90
46336;DHT22;31365;48.858;8.530;2022-07-10T12:01:02;27.70;69.90
46336;DHT22;31365;48.858;8.530;2022-07-10T12:03:34;28.00;69.10
46336;DHT22;31365;48.858;8.530;2022-07-10T12:06:04;28.60;68.70
46336;DHT22;31365;48.858;8.530;2022-07-10T12:08:44;29.00;65.40
46336;DHT22;31365;48.858;8.530;2022-07-10T12:11:13;29.20;65.70
46336;DHT22;31365;48.858;8.530;2022-07-10T12:13:42;29.00;63.70
46336;DHT22;31365;48.858;8.530;2022-07-10T12:16:12;28.90;64.60
46336;DHT22;31365;48.858;8.530;2022-07-10T12:18:42;29.30;64.70
46336;DHT22;31365;48.858;8.530;2022-07-10T12:21:12;29.80;62.80
46336;DHT22;31365;48.858;8.530;2022-07-10T12:23:44;30.30;61.20
46336;DHT22;31365;48.858;8.530;2022-07-10T12:26:13;30.70;60.20
46336;DHT22;31365;48.858;8.530;2022-07-10T12:28:52;30.80;59.40
46336;DHT22;31365;48.858;8.530;2022-07-10T12:31:27;30.70;59.80
46336;DHT22;31365;48.858;8.530;2022-07-10T12:33:57;30.80;59.00
46336;DHT22;31365;48.858;8.530;2022-07-10T12:36:42;31.00;58.30
46336;DHT22;31365;48.858;8.530;2022-07-10T12:39:11;31.40;59.40
46336;DHT22;31365;48.858;8.530;2022-07-10T12:41:57;31.80;57.20
46336;DHT22;31365;48.858;8.530;2022-07-10T12:44:38;30.80;57.20
46336;DHT22;31365;48.858;8.530;2022-07-10T12:47:11;29.50;59.50
46336;DHT22;31365;48.858;8.530;2022-07-10T12:49:55;29.80;60.00
46336;DHT22;31365;48.858;8.530;2022-07-10T12:52:26;30.60;58.50
46336;DHT22;31365;48.858;8.530;2022-07-10T12:55:12;31.40;58.40
46336;DHT22;31365;48.858;8.530;2022-07-10T12:57:47;31.90;56.60
46336;DHT22;31365;48.858;8.530;2022-07-10T13:00:18;31.50;56.90
46336;DHT22;31365;48.858;8.530;2022-07-10T13:02:57;31.00;57.40
46336;DHT22;31365;48.858;8.530;2022-07-10T13:05:28;31.20;57.50
46336;DHT22;31365;48.858;8.530;2022-07-10T13:08:08;31.60;55.90
46336;DHT22;31365;48.858;8.530;2022-07-10T13:10:40;32.10;56.20
46336;DHT22;31365;48.858;8.530;2022-07-10T13:13:10;32.90;55.20
46336;DHT22;31365;48.858;8.530;2022-07-10T13:15:39;32.10;54.70
46336;DHT22;31365;48.858;8.530;2022-07-10T13:18:14;31.60;55.40
46336;DHT22;31365;48.858;8.530;2022-07-10T13:20:45;31.90;55.70
46336;DHT22;31365;48.858;8.530;2022-07-10T13:23:13;31.90;54.40
46336;DHT22;31365;48.858;8.530;2022-07-10T13:25:41;31.80;55.10
46336;DHT22;31365;48.858;8.530;2022-07-10T13:28:10;31.50;54.80
46336;DHT22;31365;48.858;8.530;2022-07-10T13:30:38;31.80;55.20
46336;DHT22;31365;48.858;8.530;2022-07-10T13:33:07;32.00;54.60
46336;DHT22;31365;48.858;8.530;2022-07-10T13:35:37;32.40;54.70
46336;DHT22;31365;48.858;8.530;2022-07-10T13:38:06;32.80;54.20
46336;DHT22;31365;48.858;8.530;2022-07-10T13:40:42;33.10;54.50
46336;DHT22;31365;48.858;8.530;2022-07-10T13:43:13;33.40;52.80
46336;DHT22;31365;48.858;8.530;2022-07-10T13:45:43;33.60;53.70
46336;DHT22;31365;48.858;8.530;2022-07-10T13:48:13;33.70;52.40
46336;DHT22;31365;48.858;8.530;2022-07-10T13:50:45;33.00;52.80
46336;DHT22;31365;48.858;8.530;2022-07-10T13:53:15;31.40;54.30
46336;DHT22;31365;48.858;8.530;2022-07-10T13:55:44;30.80;55.80
46336;DHT22;31365;48.858;8.530;2022-07-10T13:58:14;30.50;55.90
46336;DHT22;31365;48.858;8.530;2022-07-10T14:00:43;30.70;55.60
46336;DHT22;31365;48.858;8.530;2022-07-10T14:03:12;31.20;55.40
46336;DHT22;31365;48.858;8.530;2022-07-10T14:05:41;31.10;56.10
46336;DHT22;31365;48.858;8.530;2022-07-10T14:08:11;31.80;55.50
46336;DHT22;31365;48.858;8.530;2022-07-10T14:10:39;32.20;55.20
46336;DHT22;31365;48.858;8.530;2022-07-10T14:13:08;33.00;54.20
46336;DHT22;31365;48.858;8.530;2022-07-10T14:15:38;33.00;53.00
46336;DHT22;31365;48.858;8.530;2022-07-10T14:18:11;32.50;54.20
46336;DHT22;31365;48.858;8.530;2022-07-10T14:20:40;33.00;54.00
46336;DHT22;31365;48.858;8.530;2022-07-10T14:23:28;31.90;54.10
46336;DHT22;31365;48.858;8.530;2022-07-10T14:25:56;31.90;55.00
46336;DHT22;31365;48.858;8.530;2022-07-10T14:28:24;32.80;54.40
46336;DHT22;31365;48.858;8.530;2022-07-10T14:30:52;32.90;53.80
46336;DHT22;31365;48.858;8.530;2022-07-10T14:33:21;32.60;53.90
46336;DHT22;31365;48.858;8.530;2022-07-10T14:35:50;32.60;53.40
46336;DHT22;31365;48.858;8.530;2022-07-10T14:38:18;32.90;53.40
46336;DHT22;31365;48.858;8.530;2022-07-10T14:40:48;33.30;53.70
46336;DHT22;31365;48.858;8.530;2022-07-10T14:43:18;32.10;53.70
46336;DHT22;31365;48.858;8.530;2022-07-10T14:45:47;31.50;55.30
46336;DHT22;31365;48.858;8.530;2022-07-10T14:48:28;31.70;55.00
46336;DHT22;31365;48.858;8.530;2022-07-10T14:50:56;31.70;55.00
46336;DHT22;31365;48.858;8.530;2022-07-10T14:53:25;31.30;55.80
46336;DHT22;31365;48.858;8.530;2022-07-10T14:55:55;30.80;56.50
46336;DHT22;31365;48.858;8.530;2022-07-10T14:58:23;30.60;56.70
46336;DHT22;31365;48.858;8.530;2022-07-10T15:00:52;30.30;56.70
46336;DHT22;31365;48.858;8.530;2022-07-10T15:03:21;29.60;57.90
46336;DHT22;31365;48.858;8.530;2022-07-10T15:05:49;28.90;58.30
46336;DHT22;31365;48.858;8.530;2022-07-10T15:08:20;28.30;59.20
46336;DHT22;31365;48.858;8.530;2022-07-10T15:10:48;27.80;59.90
46336;DHT22;31365;48.858;8.530;2022-07-10T15:13:18;27.50;60.70
46336;DHT22;31365;48.858;8.530;2022-07-10T15:15:46;27.20;61.90
46336;DHT22;31365;48.858;8.530;2022-07-10T15:18:17;26.70;63.80
46336;DHT22;31365;48.858;8.530;2022-07-10T15:20:46;26.40;64.00
46336;DHT22;31365;48.858;8.530;2022-07-10T15:23:15;26.10;64.80
46336;DHT22;31365;48.858;8.530;2022-07-10T15:25:43;26.00;64.30
46336;DHT22;31365;48.858;8.530;2022-07-10T15:28:12;25.70;65.50
46336;DHT22;31365;48.858;8.530;2022-07-10T15:30:41;25.70;65.60
46336;DHT22;31365;48.858;8.530;2022-07-10T15:33:10;25.30;66.10
46336;DHT22;31365;48.858;8.530;2022-07-10T15:35:39;25.30;66.70
46336;DHT22;31365;48.858;8.530;2022-07-10T15:38:07;25.40;66.70
46336;DHT22;31365;48.858;8.530;2022-07-10T15:40:36;25.30;66.70
46336;DHT22;31365;48.858;8.530;2022-07-10T15:43:04;25.30;67.40
46336;DHT22;31365;48.858;8.530;2022-07-10T15:45:32;25.30;66.80
46336;DHT22;31365;48.858;8.530;2022-07-10T15:48:03;25.40;67.00
46336;DHT22;31365;48.858;8.530;2022-07-10T15:50:31;25.50;67.20
46336;DHT22;31365;48.858;8.530;2022-07-10T15:53:01;25.50;67.00